Time;durP1;ratioP1;P1;durP2;ratioP2;P2;SDS_P1;SDS_P2;PMS_P1;PMS_P2;Temp;Humidity;BMP_temperature;BMP_pressure;BME280_temperature;BME280_humidity;BME280_pressure;Samples;Min_cycle;Max_cycle;Signal;HPM_P1;HPM_P2
2023/11/19 00:00:34;;;;;;;8.40;6.32;;;25.90;99.90;;;;;;5031586;28;20021;-51
2023/11/19 00:03:00;;;;;;;7.68;6.18;;;25.90;99.90;;;;;;5013715;28;20029;-49
2023/11/19 00:05:27;;;;;;;8.30;5.95;;;25.90;99.90;;;;;;5014126;28;20393;-50
2023/11/19 00:07:53;;;;;;;7.82;5.97;;;25.80;99.90;;;;;;5031730;28;20024;-50
2023/11/19 00:10:20;;;;;;;11.93;7.53;;;25.80;99.90;;;;;;5030785;28;20386;-50
2023/11/19 00:12:47;;;;;;;8.20;6.28;;;25.80;99.90;;;;;;5031140;28;20022;-51
2023/11/19 00:15:14;;;;;;;8.07;6.03;;;25.80;99.90;;;;;;5013492;28;20474;-50
2023/11/19 00:17:46;;;;;;;10.65;6.18;;;25.80;99.90;;;;;;5032138;28;20481;-52
2023/11/19 00:20:13;;;;;;;8.85;5.38;;;25.80;99.90;;;;;;5035368;28;20013;-52
2023/11/19 00:22:39;;;;;;;7.13;5.70;;;25.80;99.90;;;;;;5027027;28;20037;-52
2023/11/19 00:25:06;;;;;;;13.80;5.88;;;25.80;99.90;;;;;;5035551;28;20359;-50
2023/11/19 00:27:32;;;;;;;8.20;5.77;;;25.80;99.90;;;;;;5035791;28;20029;-50
2023/11/19 00:29:58;;;;;;;7.07;5.38;;;25.80;99.90;;;;;;5035582;28;20266;-48
2023/11/19 00:32:24;;;;;;;7.85;5.65;;;25.80;99.90;;;;;;5034872;28;20021;-48
2023/11/19 00:34:50;;;;;;;7.97;5.65;;;25.80;99.90;;;;;;5035323;28;20048;-51
2023/11/19 00:37:16;;;;;;;7.20;5.88;;;25.80;99.90;;;;;;5035081;28;20022;-48
2023/11/19 00:39:43;;;;;;;7.70;5.75;;;25.80;99.90;;;;;;5035019;28;20025;-48
2023/11/19 00:42:13;;;;;;;7.95;5.70;;;25.80;99.90;;;;;;5035130;28;20041;-48
2023/11/19 00:44:39;;;;;;;9.68;5.30;;;25.70;99.90;;;;;;5035236;28;20022;-48
2023/11/19 00:47:05;;;;;;;8.05;5.80;;;25.70;99.90;;;;;;5035066;28;20109;-48
2023/11/19 00:49:32;;;;;;;5.82;5.25;;;25.70;99.90;;;;;;5034804;28;20053;-51
2023/11/19 00:51:59;;;;;;;6.43;5.07;;;25.70;99.90;;;;;;5035275;28;20017;-50
2023/11/19 00:54:25;;;;;;;8.35;6.25;;;25.70;99.90;;;;;;5034941;28;20083;-50
2023/11/19 00:56:55;;;;;;;6.20;5.30;;;25.60;99.90;;;;;;5034913;28;20358;-50
2023/11/19 00:59:21;;;;;;;7.30;5.80;;;25.70;99.90;;;;;;5035177;28;20009;-50
2023/11/19 01:01:51;;;;;;;10.07;5.43;;;25.60;99.90;;;;;;5034240;28;20516;-49
2023/11/19 01:04:17;;;;;;;7.30;5.35;;;25.60;99.90;;;;;;5035548;28;20029;-50
2023/11/19 01:06:43;;;;;;;6.55;5.22;;;25.60;99.90;;;;;;5035218;28;20022;-49
2023/11/19 01:09:09;;;;;;;6.22;5.63;;;25.60;99.90;;;;;;5034391;28;20021;-49
2023/11/19 01:11:35;;;;;;;8.25;5.53;;;25.60;99.90;;;;;;5035592;28;20382;-48
2023/11/19 01:14:01;;;;;;;8.95;5.40;;;25.60;99.90;;;;;;5034708;28;20026;-50
2023/11/19 01:16:27;;;;;;;7.53;5.68;;;25.60;99.90;;;;;;5016793;28;20831;-49
2023/11/19 01:18:53;;;;;;;10.02;5.97;;;25.60;99.90;;;;;;5034645;28;20084;-49
2023/11/19 01:21:19;;;;;;;6.90;5.18;;;25.60;99.90;;;;;;5034428;28;20044;-50
2023/11/19 01:23:45;;;;;;;5.68;4.78;;;25.50;99.90;;;;;;5034231;28;20033;-49
2023/11/19 01:26:15;;;;;;;7.07;5.40;;;25.50;99.90;;;;;;5034364;28;20026;-49
2023/11/19 01:28:44;;;;;;;8.80;5.38;;;25.50;99.90;;;;;;5027285;28;20489;-50
2023/11/19 01:31:11;;;;;;;7.57;6.03;;;25.50;99.90;;;;;;5034101;28;20453;-49
2023/11/19 01:33:37;;;;;;;6.20;4.90;;;25.50;99.90;;;;;;5033154;28;20053;-49
2023/11/19 01:36:04;;;;;;;6.93;5.10;;;25.50;99.90;;;;;;5016458;28;20441;-49
2023/11/19 01:38:30;;;;;;;7.95;5.82;;;25.50;99.90;;;;;;5034555;28;20100;-49
2023/11/19 01:41:00;;;;;;;6.30;4.95;;;25.50;99.90;;;;;;5034315;28;20026;-49
2023/11/19 01:43:42;;;;;;;6.03;5.10;;;25.40;99.90;;;;;;5034394;28;20037;-49
2023/11/19 01:46:12;;;;;;;6.40;4.70;;;25.40;99.90;;;;;;5034502;28;20039;-49
2023/11/19 01:48:43;;;;;;;7.53;5.13;;;25.40;99.90;;;;;;5034118;28;20014;-49
2023/11/19 01:51:09;;;;;;;6.85;5.13;;;25.40;99.90;;;;;;5033383;28;20025;-49
2023/11/19 01:53:38;;;;;;;7.18;4.90;;;25.40;99.90;;;;;;5033663;28;20034;-50
2023/11/19 01:56:08;;;;;;;6.28;5.00;;;25.40;99.90;;;;;;5032056;28;20021;-48
2023/11/19 01:58:39;;;;;;;6.53;4.88;;;25.40;99.90;;;;;;5033673;28;20107;-49
2023/11/19 02:01:07;;;;;;;7.93;5.18;;;25.40;99.90;;;;;;5046846;22;20069;-55
2023/11/19 02:03:33;;;;;;;10.75;4.72;;;25.40;99.90;;;;;;5032303;28;20521;-56
2023/11/19 02:06:00;;;;;;;7.55;5.00;;;25.30;99.90;;;;;;5031812;28;20034;-55
2023/11/19 02:08:26;;;;;;;7.53;5.13;;;25.30;99.90;;;;;;5005479;28;20030;-54
2023/11/19 02:10:52;;;;;;;5.85;4.93;;;25.30;99.90;;;;;;5022327;28;20413;-55
2023/11/19 02:13:19;;;;;;;6.30;4.80;;;25.30;99.90;;;;;;5013788;28;20072;-55
2023/11/19 02:15:44;;;;;;;8.25;5.05;;;25.30;99.90;;;;;;5030564;28;20048;-55
2023/11/19 02:18:30;;;;;;;7.82;5.15;;;25.30;99.90;;;;;;5033511;28;20021;-56
2023/11/19 02:20:58;;;;;;;7.10;5.10;;;25.30;99.90;;;;;;5033284;28;20038;-56
2023/11/19 02:23:26;;;;;;;6.05;5.15;;;25.20;99.90;;;;;;5032094;28;20489;-56
2023/11/19 02:25:58;;;;;;;6.28;4.60;;;25.20;99.90;;;;;;5033033;28;20520;-55
2023/11/19 02:28:24;;;;;;;8.73;5.15;;;25.20;99.90;;;;;;5033390;28;20029;-55
2023/11/19 02:30:50;;;;;;;8.30;5.50;;;25.20;99.90;;;;;;5015622;28;20377;-55
2023/11/19 02:33:15;;;;;;;7.93;5.65;;;25.20;99.90;;;;;;5033375;28;20489;-55
2023/11/19 02:35:41;;;;;;;7.72;4.57;;;25.20;99.90;;;;;;5032747;28;20032;-56
2023/11/19 02:38:08;;;;;;;6.90;5.22;;;25.10;99.90;;;;;;5015705;28;20026;-55
2023/11/19 02:40:33;;;;;;;7.35;5.13;;;25.10;99.90;;;;;;5032519;28;20032;-55
2023/11/19 02:42:59;;;;;;;5.32;4.15;;;25.10;99.90;;;;;;5033198;28;20425;-55
2023/11/19 02:45:26;;;;;;;5.43;4.75;;;25.10;99.90;;;;;;5031470;28;20014;-54
2023/11/19 02:47:52;;;;;;;5.60;4.40;;;25.10;99.90;;;;;;5029938;28;20505;-55
2023/11/19 02:50:24;;;;;;;7.00;4.63;;;25.10;99.90;;;;;;5032084;28;20080;-56
2023/11/19 02:53:02;;;;;;;7.38;4.63;;;25.00;99.90;;;;;;5013992;28;20256;-57
2023/11/19 02:55:30;;;;;;;7.55;4.38;;;25.00;99.90;;;;;;5031783;28;20021;-56
2023/11/19 02:57:58;;;;;;;8.82;4.97;;;25.00;99.90;;;;;;5014664;28;20085;-56
2023/11/19 03:00:25;;;;;;;7.00;5.20;;;25.00;99.90;;;;;;5043474;22;20036;-48
2023/11/19 03:02:59;;;;;;;7.20;5.15;;;25.00;99.90;;;;;;5030910;28;20420;-43
2023/11/19 03:05:26;;;;;;;7.75;4.70;;;25.00;99.90;;;;;;5029771;28;20017;-44
2023/11/19 03:07:52;;;;;;;5.32;4.22;;;24.90;99.90;;;;;;5032072;28;20021;-43
2023/11/19 03:10:18;;;;;;;5.47;4.22;;;25.00;99.90;;;;;;5031897;28;20355;-44
2023/11/19 03:12:45;;;;;;;6.10;4.40;;;24.90;99.90;;;;;;5032195;28;20053;-43
2023/11/19 03:15:11;;;;;;;7.18;3.97;;;24.90;99.90;;;;;;5031827;28;20025;-43
2023/11/19 03:17:41;;;;;;;5.70;4.53;;;24.90;99.90;;;;;;5014369;28;20474;-43
2023/11/19 03:20:15;;;;;;;8.35;4.40;;;24.90;99.90;;;;;;5030960;28;20382;-43
2023/11/19 03:22:41;;;;;;;7.32;3.92;;;24.90;99.90;;;;;;5031404;28;21298;-44
2023/11/19 03:25:08;;;;;;;10.30;4.38;;;24.90;99.90;;;;;;5032078;28;20018;-44
2023/11/19 03:27:44;;;;;;;8.35;3.92;;;24.90;99.90;;;;;;5031733;28;20030;-44
2023/11/19 03:30:10;;;;;;;5.28;3.80;;;24.90;99.90;;;;;;5030872;28;20060;-43
2023/11/19 03:32:36;;;;;;;6.22;3.80;;;24.80;99.90;;;;;;5030581;28;20033;-42
2023/11/19 03:35:09;;;;;;;6.20;3.38;;;24.80;99.90;;;;;;5031585;28;20056;-43
2023/11/19 03:37:36;;;;;;;4.50;4.10;;;24.80;99.90;;;;;;5031013;28;20017;-42
2023/11/19 03:40:02;;;;;;;5.63;3.80;;;24.80;99.90;;;;;;5029993;28;20022;-43
2023/11/19 03:42:29;;;;;;;6.95;5.10;;;24.80;99.90;;;;;;5031505;28;20282;-44
2023/11/19 03:44:55;;;;;;;4.40;3.55;;;24.80;99.90;;;;;;5031717;28;20025;-42
2023/11/19 03:47:21;;;;;;;6.38;3.65;;;24.70;99.90;;;;;;5030434;28;20037;-42
2023/11/19 03:49:50;;;;;;;5.22;3.30;;;24.70;99.90;;;;;;5013324;28;20025;-43
2023/11/19 03:52:17;;;;;;;5.57;3.63;;;24.70;99.90;;;;;;5030556;28;20480;-43
2023/11/19 03:54:43;;;;;;;7.28;3.70;;;24.70;99.90;;;;;;5031678;28;20152;-43
2023/11/19 03:57:10;;;;;;;6.35;3.33;;;24.70;99.90;;;;;;5030756;28;20017;-43
2023/11/19 03:59:36;;;;;;;6.78;3.58;;;24.70;99.90;;;;;;5013442;28;20033;-42
2023/11/19 04:02:02;;;;;;;7.85;3.40;;;24.70;99.90;;;;;;5043857;22;20061;-56
2023/11/19 04:04:31;;;;;;;5.38;3.40;;;24.70;99.90;;;;;;5030688;28;20537;-55
2023/11/19 04:06:57;;;;;;;7.30;4.40;;;24.70;99.90;;;;;;5031505;28;20453;-55
2023/11/19 04:09:23;;;;;;;7.53;3.85;;;24.60;99.90;;;;;;5030877;28;20033;-54
2023/11/19 04:11:49;;;;;;;5.40;3.70;;;24.60;99.90;;;;;;5031243;28;20018;-55
2023/11/19 04:14:17;;;;;;;5.97;3.58;;;24.60;99.90;;;;;;5030134;28;20025;-55
2023/11/19 04:16:46;;;;;;;6.93;3.85;;;24.60;99.90;;;;;;5030563;28;20018;-55
2023/11/19 04:19:12;;;;;;;3.65;2.97;;;24.60;99.90;;;;;;5031688;28;20025;-54
2023/11/19 04:21:41;;;;;;;4.85;3.75;;;24.60;99.90;;;;;;5030928;28;20536;-55
2023/11/19 04:24:08;;;;;;;4.03;2.85;;;24.60;99.90;;;;;;5030682;28;20033;-55
2023/11/19 04:26:34;;;;;;;6.80;3.60;;;24.60;99.90;;;;;;5029939;28;20100;-55
2023/11/19 04:29:00;;;;;;;4.47;2.85;;;24.50;99.90;;;;;;5031641;28;20120;-55
2023/11/19 04:31:31;;;;;;;6.38;2.95;;;24.50;99.90;;;;;;5030552;28;20022;-55
2023/11/19 04:33:58;;;;;;;5.60;3.20;;;24.60;99.90;;;;;;5031188;28;20021;-54
2023/11/19 04:36:24;;;;;;;4.97;3.67;;;24.50;99.90;;;;;;5030625;28;20029;-55
2023/11/19 04:38:50;;;;;;;5.68;3.50;;;24.50;99.90;;;;;;5030308;28;20301;-55
2023/11/19 04:41:16;;;;;;;6.53;3.72;;;24.50;99.90;;;;;;5012177;28;20080;-56
2023/11/19 04:43:42;;;;;;;4.80;3.33;;;24.50;99.90;;;;;;5029620;28;20053;-55
2023/11/19 04:46:10;;;;;;;4.35;3.13;;;24.50;99.90;;;;;;5030991;28;20079;-56
2023/11/19 04:48:35;;;;;;;5.22;3.17;;;24.50;99.90;;;;;;5030980;28;20362;-55
2023/11/19 04:51:04;;;;;;;4.72;3.35;;;24.50;99.90;;;;;;5011442;28;20076;-55
2023/11/19 04:53:30;;;;;;;3.75;2.90;;;24.50;99.90;;;;;;5030906;28;20497;-55
2023/11/19 04:55:55;;;;;;;5.13;2.95;;;24.50;99.90;;;;;;5030749;28;20026;-55
2023/11/19 04:58:21;;;;;;;4.20;2.70;;;24.40;99.90;;;;;;5029588;28;20075;-56
2023/11/19 05:00:47;;;;;;;4.10;3.05;;;24.40;99.90;;;;;;5031622;28;20505;-55
2023/11/19 05:03:13;;;;;;;5.32;2.90;;;24.40;99.90;;;;;;5032292;28;20060;-55
2023/11/19 05:05:38;;;;;;;3.38;2.70;;;24.40;99.90;;;;;;5035390;28;20462;-55
2023/11/19 05:08:05;;;;;;;3.55;2.42;;;24.40;99.90;;;;;;5035164;28;20431;-55
2023/11/19 05:10:30;;;;;;;5.40;2.97;;;24.40;99.90;;;;;;5017743;28;20101;-55
2023/11/19 05:12:56;;;;;;;4.68;2.95;;;24.40;99.90;;;;;;5035275;28;20084;-55
2023/11/19 05:15:22;;;;;;;3.28;2.55;;;24.30;99.90;;;;;;5035095;28;20032;-55
2023/11/19 05:17:48;;;;;;;6.55;3.30;;;24.30;99.90;;;;;;5034991;28;20030;-55
2023/11/19 05:20:14;;;;;;;5.07;2.80;;;24.30;99.90;;;;;;5035229;28;20029;-55
2023/11/19 05:22:42;;;;;;;5.20;2.95;;;24.30;99.90;;;;;;5034864;28;20112;-55
2023/11/19 05:25:11;;;;;;;3.63;3.15;;;24.30;99.90;;;;;;5034910;28;20029;-55
2023/11/19 05:27:37;;;;;;;4.72;2.58;;;24.30;99.90;;;;;;5034911;28;20025;-55
2023/11/19 05:30:10;;;;;;;3.35;2.63;;;24.30;99.90;;;;;;5034782;28;20474;-55
2023/11/19 05:32:36;;;;;;;2.60;2.40;;;24.30;99.90;;;;;;5034809;28;20060;-55
2023/11/19 05:35:02;;;;;;;4.55;2.80;;;24.30;99.90;;;;;;5034584;28;20048;-55
2023/11/19 05:37:28;;;;;;;5.55;2.58;;;24.30;99.90;;;;;;5034834;28;20121;-55
2023/11/19 05:39:54;;;;;;;2.97;2.42;;;24.20;99.90;;;;;;5016964;28;20120;-55
2023/11/19 05:42:20;;;;;;;3.22;2.38;;;24.20;99.90;;;;;;5034708;28;20465;-55
2023/11/19 05:44:46;;;;;;;2.70;2.28;;;24.20;99.90;;;;;;5034776;28;20053;-55
2023/11/19 05:47:12;;;;;;;4.43;2.50;;;24.20;99.90;;;;;;5034640;28;20466;-54
2023/11/19 05:49:38;;;;;;;3.10;2.50;;;24.20;99.90;;;;;;5016779;28;20385;-55
2023/11/19 05:52:07;;;;;;;4.32;2.70;;;24.20;99.90;;;;;;5034334;28;20057;-55
2023/11/19 05:54:37;;;;;;;3.65;2.53;;;24.20;99.90;;;;;;5033758;28;20098;-55
2023/11/19 05:57:04;;;;;;;5.28;2.42;;;24.20;99.90;;;;;;5017437;28;20101;-55
2023/11/19 05:59:30;;;;;;;2.75;2.28;;;24.10;99.90;;;;;;5034345;28;20063;-54
2023/11/19 06:01:58;;;;;;;4.50;2.10;;;24.10;99.90;;;;;;5033911;28;20077;-55
2023/11/19 06:04:23;;;;;;;2.50;2.30;;;24.10;99.90;;;;;;5016676;28;20026;-55
2023/11/19 06:06:49;;;;;;;3.63;2.60;;;24.10;99.90;;;;;;5034326;28;20028;-55
2023/11/19 06:09:15;;;;;;;3.92;2.60;;;24.10;99.90;;;;;;5034589;28;20370;-54
2023/11/19 06:11:41;;;;;;;3.47;2.50;;;24.10;99.90;;;;;;5034191;28;20435;-54
2023/11/19 06:14:07;;;;;;;4.05;2.08;;;24.10;99.90;;;;;;5034059;28;20028;-55
2023/11/19 06:16:33;;;;;;;2.38;1.98;;;24.10;99.90;;;;;;5033145;28;20025;-54
2023/11/19 06:18:58;;;;;;;5.93;2.30;;;24.10;99.90;;;;;;5033944;28;20029;-55
2023/11/19 06:21:24;;;;;;;3.05;2.05;;;24.00;99.90;;;;;;5016086;28;20040;-54
2023/11/19 06:23:52;;;;;;;3.70;2.25;;;24.00;99.90;;;;;;5034205;28;20029;-55
2023/11/19 06:26:18;;;;;;;3.67;2.10;;;24.00;99.90;;;;;;5034128;28;20014;-55
2023/11/19 06:28:44;;;;;;;3.33;2.08;;;24.00;99.90;;;;;;5033839;28;20035;-55
2023/11/19 06:31:10;;;;;;;5.20;2.47;;;24.00;99.90;;;;;;5033759;28;20029;-55
2023/11/19 06:33:36;;;;;;;2.63;2.10;;;24.00;99.90;;;;;;5033684;28;20481;-53
2023/11/19 06:36:02;;;;;;;4.03;2.15;;;24.00;99.90;;;;;;5033578;28;20452;-55
2023/11/19 06:38:27;;;;;;;3.03;2.25;;;24.00;99.90;;;;;;5033499;28;20021;-55
2023/11/19 06:40:54;;;;;;;2.40;1.92;;;24.00;99.90;;;;;;5033540;28;20028;-54
2023/11/19 06:43:19;;;;;;;4.53;2.10;;;24.00;99.90;;;;;;5033798;28;20030;-54
2023/11/19 06:45:45;;;;;;;7.95;2.58;;;24.00;99.90;;;;;;5033401;28;20378;-55
2023/11/19 06:48:11;;;;;;;3.30;1.85;;;24.00;99.90;;;;;;5033391;28;20029;-56
2023/11/19 06:50:37;;;;;;;2.70;2.08;;;23.90;99.90;;;;;;5033269;28;20029;-55
2023/11/19 06:53:02;;;;;;;3.63;2.42;;;23.90;99.90;;;;;;5015775;28;20022;-55
2023/11/19 06:55:28;;;;;;;5.90;2.95;;;23.90;99.90;;;;;;5033271;28;20040;-55
2023/11/19 06:57:54;;;;;;;5.90;2.28;;;23.90;99.90;;;;;;5033155;28;20101;-55
2023/11/19 07:00:20;;;;;;;3.45;2.17;;;23.90;99.90;;;;;;5033120;28;20029;-54
2023/11/19 07:02:45;;;;;;;2.15;1.77;;;23.90;99.90;;;;;;5015429;28;20366;-55
2023/11/19 07:05:13;;;;;;;4.95;2.50;;;23.90;99.90;;;;;;5033132;28;20025;-54
2023/11/19 07:07:40;;;;;;;3.78;2.80;;;23.90;99.90;;;;;;5015251;28;20371;-55
2023/11/19 07:10:08;;;;;;;3.70;1.77;;;23.90;99.90;;;;;;5032719;28;20029;-54
2023/11/19 07:12:35;;;;;;;4.00;2.20;;;23.90;99.90;;;;;;5032982;28;20408;-54
2023/11/19 07:15:03;;;;;;;2.87;2.33;;;23.90;99.90;;;;;;5032882;28;20025;-54
2023/11/19 07:17:30;;;;;;;4.30;2.50;;;23.90;99.90;;;;;;5033342;28;20312;-54
2023/11/19 07:19:59;;;;;;;3.20;2.28;;;23.90;99.90;;;;;;5032735;28;20060;-55
2023/11/19 07:22:25;;;;;;;3.03;2.25;;;23.90;99.90;;;;;;5032811;28;20049;-55
2023/11/19 07:24:51;;;;;;;3.70;1.83;;;23.90;99.90;;;;;;5033018;28;20485;-55
2023/11/19 07:27:16;;;;;;;3.22;2.00;;;23.90;99.90;;;;;;5032713;28;20036;-54
2023/11/19 07:29:44;;;;;;;3.67;2.60;;;23.90;99.90;;;;;;5032701;28;20029;-54
2023/11/19 07:32:10;;;;;;;3.53;2.08;;;23.90;99.90;;;;;;5032479;28;20014;-54
2023/11/19 07:34:36;;;;;;;2.47;2.28;;;23.90;99.90;;;;;;5032430;28;20022;-54
2023/11/19 07:37:02;;;;;;;3.72;2.15;;;24.00;99.90;;;;;;5032609;28;20100;-54
2023/11/19 07:39:29;;;;;;;3.55;2.20;;;24.00;99.90;;;;;;5032547;28;20100;-54
2023/11/19 07:41:55;;;;;;;3.28;2.13;;;24.00;99.90;;;;;;5014869;28;20022;-54
2023/11/19 07:44:24;;;;;;;2.10;1.90;;;24.00;99.90;;;;;;5032673;28;20030;-54
2023/11/19 07:46:50;;;;;;;2.72;2.33;;;24.00;99.90;;;;;;5032368;28;20064;-54
2023/11/19 07:49:16;;;;;;;2.72;2.28;;;24.10;99.90;;;;;;5032408;28;20060;-54
2023/11/19 07:51:41;;;;;;;4.68;2.38;;;24.10;99.90;;;;;;5032399;28;20025;-54
2023/11/19 07:54:08;;;;;;;3.10;2.40;;;24.10;99.90;;;;;;5032298;28;20033;-54
2023/11/19 07:56:35;;;;;;;2.80;2.50;;;24.10;99.90;;;;;;5032350;28;20021;-55
2023/11/19 07:59:02;;;;;;;4.97;2.60;;;24.20;99.90;;;;;;5032289;28;20021;-54
2023/11/19 08:01:28;;;;;;;4.27;2.57;;;24.20;99.90;;;;;;5031915;28;20050;-54
2023/11/19 08:03:53;;;;;;;3.92;2.92;;;24.20;99.90;;;;;;5032451;28;20110;-54
2023/11/19 08:06:19;;;;;;;3.42;2.72;;;24.30;99.90;;;;;;5032144;28;20021;-55
2023/11/19 08:08:45;;;;;;;3.47;2.00;;;24.30;99.90;;;;;;5032038;28;20033;-54
2023/11/19 08:11:11;;;;;;;3.70;2.25;;;24.30;99.90;;;;;;5032071;28;20124;-55
2023/11/19 08:13:37;;;;;;;4.18;2.53;;;24.30;99.90;;;;;;5032113;28;20112;-56
2023/11/19 08:16:02;;;;;;;4.93;2.40;;;24.40;99.90;;;;;;5032110;28;20021;-56
2023/11/19 08:18:28;;;;;;;3.28;2.50;;;24.40;99.90;;;;;;5014498;28;20481;-55
2023/11/19 08:20:56;;;;;;;3.15;2.30;;;24.40;99.90;;;;;;5032199;28;20049;-55
2023/11/19 08:23:23;;;;;;;;;;;24.50;99.90;;;;;;5032407;28;20519;-55
2023/11/19 08:25:49;;;;;;;;;;;24.50;99.90;;;;;;5032340;28;19913;-55
2023/11/19 08:28:15;;;;;;;3.03;2.20;;;24.50;99.90;;;;;;5031960;28;19906;-55
2023/11/19 08:30:41;;;;;;;2.75;2.40;;;24.60;99.90;;;;;;5031814;28;20029;-55
2023/11/19 08:33:06;;;;;;;3.28;2.47;;;24.60;99.90;;;;;;5031896;28;20049;-55
2023/11/19 08:35:33;;;;;;;3.75;2.75;;;24.60;99.90;;;;;;5032034;28;20032;-54
2023/11/19 08:37:59;;;;;;;3.45;2.75;;;24.60;99.90;;;;;;5014425;28;20091;-55
2023/11/19 08:40:27;;;;;;;4.22;3.20;;;24.70;99.90;;;;;;5018302;28;20029;-54
2023/11/19 08:42:53;;;;;;;7.00;2.42;;;24.70;99.90;;;;;;5035982;28;20029;-55
2023/11/19 08:45:19;;;;;;;2.97;2.53;;;24.70;99.90;;;;;;5035685;28;20018;-54
2023/11/19 08:47:45;;;;;;;3.95;2.47;;;24.70;99.90;;;;;;5035559;28;20029;-54
2023/11/19 08:50:11;;;;;;;3.60;2.80;;;24.80;99.90;;;;;;5035675;28;20021;-55
2023/11/19 08:52:37;;;;;;;3.47;2.55;;;24.80;99.90;;;;;;5035478;28;20159;-55
2023/11/19 08:55:05;;;;;;;2.92;2.65;;;24.90;99.90;;;;;;5035365;28;20096;-54
2023/11/19 08:57:31;;;;;;;4.50;3.53;;;24.90;99.90;;;;;;5035320;28;20025;-55
2023/11/19 08:59:57;;;;;;;5.50;3.00;;;24.90;99.90;;;;;;5035467;28;20056;-55
2023/11/19 09:02:22;;;;;;;4.35;3.30;;;25.00;99.90;;;;;;5034922;28;20082;-55
2023/11/19 09:04:48;;;;;;;8.10;3.03;;;25.00;99.90;;;;;;5035209;28;20025;-56
2023/11/19 09:07:14;;;;;;;4.38;3.15;;;25.00;99.90;;;;;;5035201;28;20032;-55
2023/11/19 09:09:40;;;;;;;5.00;2.92;;;25.00;99.90;;;;;;5035180;28;20061;-55
2023/11/19 09:12:06;;;;;;;3.70;2.80;;;25.10;99.90;;;;;;5035313;28;20478;-55
2023/11/19 09:14:32;;;;;;;6.07;2.78;;;25.10;99.90;;;;;;5035199;28;20029;-55
2023/11/19 09:16:58;;;;;;;4.15;3.35;;;25.10;99.90;;;;;;5035182;28;20033;-54
2023/11/19 09:19:24;;;;;;;5.68;3.20;;;25.20;99.90;;;;;;5035018;28;20057;-54
2023/11/19 09:21:50;;;;;;;3.95;3.15;;;25.20;99.90;;;;;;5034869;28;20358;-55
2023/11/19 09:24:16;;;;;;;4.70;3.05;;;25.30;99.90;;;;;;5034916;28;20022;-55
2023/11/19 09:26:42;;;;;;;5.25;3.10;;;25.30;99.90;;;;;;5017325;28;20436;-55
2023/11/19 09:29:08;;;;;;;4.93;3.50;;;25.30;99.90;;;;;;5034868;28;20021;-54
2023/11/19 09:31:34;;;;;;;5.80;3.10;;;25.30;99.90;;;;;;5034924;28;20026;-55
2023/11/19 09:34:00;;;;;;;4.15;2.72;;;25.40;99.90;;;;;;5017149;28;20068;-55
2023/11/19 09:36:26;;;;;;;5.60;3.25;;;25.40;99.90;;;;;;5035019;28;20021;-55
2023/11/19 09:38:52;;;;;;;3.60;2.88;;;25.40;99.90;;;;;;5034588;28;20029;-55
2023/11/19 09:41:19;;;;;;;4.47;3.10;;;25.50;99.90;;;;;;5034595;28;20029;-55
2023/11/19 09:43:45;;;;;;;8.17;3.13;;;25.50;99.90;;;;;;5034496;28;20029;-55
2023/11/19 09:46:15;;;;;;;4.60;3.40;;;25.50;99.90;;;;;;5034455;28;20029;-54
2023/11/19 09:48:42;;;;;;;5.25;3.22;;;25.60;99.90;;;;;;5034543;28;20040;-55
2023/11/19 09:51:09;;;;;;;5.30;3.50;;;25.60;99.90;;;;;;5034517;28;20043;-55
2023/11/19 09:53:36;;;;;;;4.65;3.08;;;25.70;99.90;;;;;;5017172;28;20105;-55
2023/11/19 09:56:05;;;;;;;3.90;3.20;;;25.70;99.90;;;;;;5016597;28;20051;-56
2023/11/19 09:58:32;;;;;;;4.85;3.35;;;25.80;99.90;;;;;;5034564;28;20524;-55
2023/11/19 10:00:59;;;;;;;5.63;3.17;;;25.80;99.90;;;;;;5034257;28;20049;-55
2023/11/19 10:03:29;;;;;;;4.60;3.17;;;25.80;99.90;;;;;;5034267;28;20037;-56
2023/11/19 10:05:56;;;;;;;4.20;2.58;;;25.90;99.90;;;;;;5034044;28;20048;-55
2023/11/19 10:08:22;;;;;;;5.80;3.28;;;25.90;99.90;;;;;;5034211;28;20025;-55
2023/11/19 10:10:48;;;;;;;4.90;2.95;;;26.00;99.90;;;;;;5016505;28;20025;-56
2023/11/19 10:13:14;;;;;;;2.80;2.53;;;26.10;99.90;;;;;;5033993;28;20447;-56
2023/11/19 10:15:41;;;;;;;3.78;2.60;;;26.10;99.90;;;;;;5033789;28;20052;-55
2023/11/19 10:18:07;;;;;;;9.05;3.22;;;26.20;99.90;;;;;;5033775;28;20021;-56
2023/11/19 10:20:36;;;;;;;3.95;2.50;;;26.20;99.90;;;;;;5033968;28;20064;-56
2023/11/19 10:23:03;;;;;;;6.30;2.65;;;26.30;99.90;;;;;;5033705;28;20541;-56
2023/11/19 10:25:29;;;;;;;4.65;2.50;;;26.30;99.90;;;;;;5034466;28;20087;-55
2023/11/19 10:27:56;;;;;;;3.60;2.63;;;26.30;99.90;;;;;;5033646;28;20033;-55
2023/11/19 10:30:29;;;;;;;3.85;3.03;;;26.40;99.90;;;;;;5033677;28;20033;-55
2023/11/19 10:33:17;;;;;;;4.03;3.13;;;26.40;99.90;;;;;;5033565;28;20049;-55
2023/11/19 10:35:54;;;;;;;3.55;2.80;;;26.50;99.90;;;;;;5016884;28;20100;-55
2023/11/19 10:38:22;;;;;;;5.47;3.03;;;26.50;99.90;;;;;;5033624;28;20095;-55
2023/11/19 10:40:48;;;;;;;;;;;26.60;99.90;;;;;;5034073;28;20021;-55
2023/11/19 10:43:13;;;;;;;4.85;3.28;;;26.60;99.90;;;;;;5033345;28;19919;-56
2023/11/19 10:45:40;;;;;;;4.78;3.10;;;26.70;99.90;;;;;;5015550;28;20057;-56
2023/11/19 10:48:07;;;;;;;5.33;3.63;;;26.70;99.90;;;;;;5033371;28;20405;-55
2023/11/19 10:50:37;;;;;;;4.00;3.28;;;26.70;99.90;;;;;;5033297;28;20025;-55
2023/11/19 10:53:04;;;;;;;4.47;3.40;;;26.80;99.90;;;;;;5033160;28;20470;-55
2023/11/19 10:55:35;;;;;;;5.72;3.03;;;26.80;99.90;;;;;;5015607;28;20022;-55
2023/11/19 10:58:09;;;;;;;4.88;3.20;;;26.80;99.90;;;;;;5033109;28;20068;-55
2023/11/19 11:00:35;;;;;;;6.75;3.80;;;26.80;99.90;;;;;;5032891;28;20050;-55
2023/11/19 11:03:02;;;;;;;4.22;2.83;;;26.90;99.90;;;;;;5032537;28;20037;-56
2023/11/19 11:05:33;;;;;;;3.55;3.05;;;26.90;99.90;;;;;;5015207;28;20112;-55
2023/11/19 11:08:00;;;;;;;6.25;3.28;;;27.00;99.90;;;;;;5015232;28;20351;-55
2023/11/19 11:10:26;;;;;;;5.70;3.25;;;27.00;99.90;;;;;;5032983;28;20030;-55
2023/11/19 11:12:58;;;;;;;4.00;3.33;;;27.00;99.90;;;;;;5033079;28;20034;-55
2023/11/19 11:15:33;;;;;;;5.95;3.20;;;27.00;99.90;;;;;;5032922;28;20382;-56
2023/11/19 11:18:04;;;;;;;5.78;3.60;;;27.10;99.90;;;;;;5032795;28;20417;-55
2023/11/19 11:20:31;;;;;;;6.32;3.28;;;27.10;99.90;;;;;;5032791;28;20018;-56
2023/11/19 11:23:00;;;;;;;3.63;3.05;;;27.20;99.90;;;;;;5032758;28;20045;-55
2023/11/19 11:25:51;;;;;;;3.88;3.38;;;27.20;99.90;;;;;;5015015;28;20028;-56
2023/11/19 11:28:56;;;;;;;8.82;3.58;;;27.20;99.90;;;;;;5032766;28;20051;-55
2023/11/19 11:31:44;;;;;;;9.07;4.03;;;27.20;99.90;;;;;;5032896;28;20033;-55
2023/11/19 11:34:29;;;;;;;4.25;3.08;;;27.30;99.90;;;;;;5032404;28;20029;-56
2023/11/19 11:37:09;;;;;;;4.10;3.08;;;27.30;99.90;;;;;;5032565;28;20034;-56
2023/11/19 11:39:36;;;;;;;5.80;3.63;;;27.30;99.90;;;;;;5014629;28;20615;-56
2023/11/19 11:42:17;;;;;;;5.55;2.88;;;27.30;99.90;;;;;;5032426;28;20037;-55
2023/11/19 11:45:09;;;;;;;4.32;3.40;;;27.40;99.90;;;;;;5032326;28;20025;-55
2023/11/19 11:47:56;;;;;;;4.55;3.20;;;27.40;99.90;;;;;;5028862;28;20112;-56
2023/11/19 11:50:23;;;;;;;4.68;3.42;;;27.40;99.90;;;;;;5004712;28;20030;-56
2023/11/19 11:52:58;;;;;;;5.45;3.58;;;27.40;99.90;;;;;;5012921;28;20025;-55
2023/11/19 11:55:36;;;;;;;9.57;3.40;;;27.50;99.90;;;;;;5031663;28;20025;-56
2023/11/19 11:58:11;;;;;;;10.27;3.85;;;27.50;99.90;;;;;;5031502;28;20018;-56
2023/11/19 12:00:41;;;;;;;6.63;3.47;;;27.50;99.90;;;;;;5031946;28;20099;-55
2023/11/19 12:03:08;;;;;;;5.97;3.65;;;27.50;99.90;;;;;;5031938;28;20034;-55
2023/11/19 12:05:42;;;;;;;8.05;4.05;;;27.50;99.90;;;;;;5031751;28;20466;-55
2023/11/19 12:08:11;;;;;;;8.77;4.55;;;27.60;99.90;;;;;;5030813;28;20037;-55
2023/11/19 12:10:48;;;;;;;8.23;4.80;;;27.60;99.90;;;;;;5031612;28;20013;-56
2023/11/19 12:13:15;;;;;;;;;;;27.60;99.90;;;;;;5032474;28;20112;-57
2023/11/19 12:16:08;;;;;;;7.50;4.22;;;27.60;99.90;;;;;;5035224;28;19959;-57
2023/11/19 12:18:34;;;;;;;7.35;4.30;;;27.70;99.90;;;;;;5029316;28;20028;-57
2023/11/19 12:21:00;;;;;;;7.20;3.78;;;27.70;99.90;;;;;;5035173;28;20032;-57
2023/11/19 12:23:30;;;;;;;8.73;3.75;;;27.70;99.90;;;;;;5035233;28;20033;-57
2023/11/19 12:25:59;;;;;;;5.93;3.70;;;27.70;99.90;;;;;;5017718;28;20013;-56
2023/11/19 12:28:27;;;;;;;7.85;4.40;;;27.70;99.90;;;;;;5032585;28;20041;-56
2023/11/19 12:30:53;;;;;;;7.28;4.10;;;27.70;99.90;;;;;;5035981;28;20014;-57
2023/11/19 12:33:19;;;;;;;8.68;3.88;;;27.70;99.90;;;;;;5017981;28;20386;-55
2023/11/19 12:35:47;;;;;;;6.35;4.15;;;27.80;99.90;;;;;;5034961;28;20022;-55
2023/11/19 12:38:23;;;;;;;5.05;3.80;;;27.80;99.90;;;;;;5020790;28;20108;-55
2023/11/19 12:41:13;;;;;;;6.88;4.22;;;27.80;99.90;;;;;;5023566;28;20105;-56
2023/11/19 12:43:39;;;;;;;8.27;4.90;;;27.80;99.90;;;;;;5016476;28;20038;-56
2023/11/19 12:46:21;;;;;;;14.07;5.28;;;27.80;99.90;;;;;;5025606;28;20481;-56
2023/11/19 12:48:48;;;;;;;13.68;5.35;;;27.80;99.90;;;;;;5032018;28;20407;-56
2023/11/19 12:51:15;;;;;;;22.15;4.93;;;27.90;99.90;;;;;;5031398;28;20072;-56